createdAt,value
2023-09-30T00:12:16.202Z,1025.01
2023-09-30T00:19:21.894Z,1024.97
2023-09-30T00:31:11.458Z,1024.99
2023-09-30T00:48:48.102Z,1025.13
2023-09-30T01:18:03.178Z,1025.00
2023-09-30T01:24:56.619Z,1024.92
2023-09-30T01:30:26.388Z,1024.84
2023-09-30T01:51:31.905Z,1024.70
2023-09-30T01:56:46.060Z,1024.64
2023-09-30T02:03:35.930Z,1024.57
2023-09-30T02:08:44.347Z,1024.62
2023-09-30T02:14:04.420Z,1024.64
2023-09-30T02:20:01.836Z,1024.63
2023-09-30T02:25:49.974Z,1024.67
2023-09-30T02:36:53.565Z,1024.66
2023-09-30T02:42:46.713Z,1024.54
2023-09-30T02:48:01.672Z,1024.51
2023-09-30T02:54:11.876Z,1024.44
2023-09-30T03:06:20.263Z,1024.53
2023-09-30T03:15:38.621Z,1024.49
2023-09-30T03:26:43.289Z,1024.52
2023-09-30T03:32:40.587Z,1024.52
2023-09-30T03:38:31.855Z,1024.61
2023-09-30T03:44:15.849Z,1024.64
2023-09-30T03:50:02.301Z,1024.61
2023-09-30T03:55:53.934Z,1024.62
2023-09-30T04:01:41.722Z,1024.71
2023-09-30T04:07:43.383Z,1024.74
2023-09-30T04:18:29.154Z,1024.74
2023-09-30T04:30:03.429Z,1024.82
2023-09-30T04:35:50.900Z,1024.77
2023-09-30T04:41:35.797Z,1024.62
2023-09-30T04:53:16.679Z,1024.53
2023-09-30T04:57:49.584Z,1024.51
2023-09-30T05:03:09.619Z,1024.58
2023-09-30T05:08:52.121Z,1024.73
2023-09-30T05:15:16.570Z,1024.85
2023-09-30T05:20:05.240Z,1024.80
2023-09-30T05:25:52.602Z,1024.77
2023-09-30T05:33:40.810Z,1024.84
2023-09-30T05:44:47.567Z,1025.05
2023-09-30T05:50:54.372Z,1025.08
2023-09-30T05:56:45.719Z,1025.10
2023-09-30T06:02:49.414Z,1025.05
2023-09-30T06:08:24.506Z,1025.12
2023-09-30T06:14:07.251Z,1025.17
2023-09-30T06:20:10.234Z,1025.26
2023-09-30T06:25:54.223Z,1025.32
2023-09-30T06:38:14.874Z,1025.31
2023-09-30T06:44:03.372Z,1025.48
2023-09-30T06:49:57.169Z,1025.57
2023-09-30T06:55:15.662Z,1025.58
2023-09-30T07:00:46.241Z,1025.47
2023-09-30T07:07:10.085Z,1025.57
2023-09-30T07:11:20.991Z,1025.71
2023-09-30T07:16:12.778Z,1025.64
2023-09-30T07:21:20.030Z,1025.80
2023-09-30T07:26:27.295Z,1025.79
2023-09-30T07:31:34.868Z,1025.84
2023-09-30T07:36:42.147Z,1025.74
2023-09-30T07:41:49.489Z,1025.64
2023-09-30T07:46:57.114Z,1025.73
2023-09-30T07:52:05.045Z,1025.80
2023-09-30T07:57:20.056Z,1026.14
2023-09-30T08:02:42.251Z,1026.12
2023-09-30T08:07:49.574Z,1026.21
2023-09-30T22:10:44.933Z,1025.82
2023-09-30T22:15:52.150Z,1025.85
2023-09-30T22:20:59.294Z,1025.84
2023-09-30T22:26:06.469Z,1025.83
2023-09-30T22:31:13.618Z,1025.83
2023-09-30T22:36:23.358Z,1025.90
2023-09-30T22:41:27.884Z,1025.97
2023-09-30T22:46:35.186Z,1025.97
2023-09-30T22:51:42.207Z,1025.92
2023-09-30T22:56:49.480Z,1026.02
2023-09-30T23:01:56.648Z,1026.00
2023-09-30T23:07:03.812Z,1025.99
2023-09-30T23:12:10.924Z,1026.00
2023-09-30T23:17:18.148Z,1026.11
2023-09-30T23:22:25.404Z,1026.12
2023-09-30T23:27:32.632Z,1026.15
2023-09-30T23:32:39.851Z,1026.21
2023-09-30T23:37:46.994Z,1026.18
2023-09-30T23:42:54.253Z,1026.17
2023-09-30T23:48:01.626Z,1026.18
2023-09-30T23:53:08.691Z,1026.15
2023-09-30T23:58:16.059Z,1026.15
